Time;durP1;ratioP1;P1;durP2;ratioP2;P2;SDS_P1;SDS_P2;PMS_P1;PMS_P2;Temp;Humidity;BMP_temperature;BMP_pressure;BME280_temperature;BME280_humidity;BME280_pressure;Samples;Min_cycle;Max_cycle;Signal;HPM_P1;HPM_P2
2022/05/10 00:00:12;;;;;;;5.57;3.43;;;;;;;13.58;75.04;100014.66;5008792;28;20213;-56
2022/05/10 00:02:39;;;;;;;10.13;3.20;;;;;;;13.54;75.62;100007.88;5008807;28;20593;-55
2022/05/10 00:05:07;;;;;;;5.00;2.93;;;;;;;13.60;75.08;100002.44;5008878;28;20198;-56
2022/05/10 00:07:37;;;;;;;5.23;2.97;;;;;;;13.62;74.80;100007.59;5008981;28;20213;-55
2022/05/10 00:10:09;;;;;;;5.73;2.90;;;;;;;13.51;75.35;100010.56;5008726;28;20201;-56
2022/05/10 00:12:36;;;;;;;3.30;3.00;;;;;;;13.50;75.30;100003.63;5008733;28;20206;-54
2022/05/10 00:15:04;;;;;;;3.17;2.93;;;;;;;13.50;75.16;100005.38;5010912;28;20650;-55
2022/05/10 00:17:37;;;;;;;4.50;3.10;;;;;;;13.41;75.49;100003.94;5044015;28;20201;-56
2022/05/10 00:20:06;;;;;;;4.37;2.67;;;;;;;13.37;75.64;99999.72;5048061;28;20201;-55
2022/05/10 00:22:33;;;;;;;3.40;2.67;;;;;;;13.33;75.00;100005.94;5048696;28;20197;-55
2022/05/10 00:25:00;;;;;;;4.00;2.70;;;;;;;13.25;75.80;99995.75;5048114;28;20207;-55
2022/05/10 00:27:28;;;;;;;5.67;2.87;;;;;;;13.26;75.46;99996.59;5047915;28;20688;-55
2022/05/10 00:29:55;;;;;;;9.87;3.00;;;;;;;13.20;75.61;99991.59;5048112;28;20601;-54
2022/05/10 00:32:23;;;;;;;3.60;2.70;;;;;;;13.13;75.42;99990.91;5048188;28;20203;-55
2022/05/10 00:34:50;;;;;;;4.93;2.43;;;;;;;13.05;76.23;99992.91;5048139;28;20224;-54
2022/05/10 00:37:22;;;;;;;5.13;2.73;;;;;;;13.12;75.76;99993.53;5047820;28;20203;-54
2022/05/10 00:39:49;;;;;;;5.77;2.77;;;;;;;12.72;76.16;99938.34;5047756;28;20192;-55
2022/05/10 00:42:19;;;;;;;8.67;3.17;;;;;;;13.07;76.32;99991.09;5047709;28;20197;-55
2022/05/10 00:44:51;;;;;;;4.10;3.17;;;;;;;13.10;75.96;99985.78;5047366;28;20197;-55
2022/05/10 00:47:24;;;;;;;4.33;2.97;;;;;;;13.10;75.69;99981.41;5047778;28;20283;-55
2022/05/10 00:50:00;;;;;;;6.30;3.10;;;;;;;13.09;75.27;99984.09;5047711;28;20565;-55
2022/05/10 00:52:34;;;;;;;3.40;3.10;;;;;;;13.09;75.66;99982.31;5047672;28;20200;-55
2022/05/10 00:55:11;;;;;;;3.87;3.00;;;;;;;13.13;74.44;99990.91;5047573;28;20224;-56
2022/05/10 00:57:43;;;;;;;3.97;3.30;;;;;;;12.82;75.02;99964.94;5047965;28;20205;-57
2022/05/10 01:00:14;;;;;;;2.93;2.70;;;;;;;13.04;74.75;99989.44;5047549;28;20203;-56
2022/05/10 01:02:51;;;;;;;3.33;3.03;;;;;;;12.94;75.64;99988.03;5047515;28;20421;-55
2022/05/10 01:05:26;;;;;;;6.40;3.70;;;;;;;12.91;76.33;99990.72;5047411;28;20197;-56
2022/05/10 01:07:59;;;;;;;3.77;3.47;;;;;;;12.96;76.18;99983.63;5047572;28;20192;-54
2022/05/10 01:10:37;;;;;;;4.77;3.13;;;;;;;12.85;76.42;99990.91;5047507;28;20283;-55
2022/05/10 01:13:15;;;;;;;7.97;3.60;;;;;;;12.86;76.18;99986.56;5047255;28;20208;-54
2022/05/10 01:15:57;;;;;;;4.37;3.13;;;;;;;12.72;76.67;99953.09;5047450;28;20288;-54
2022/05/10 01:18:24;;;;;;;7.10;3.70;;;;;;;12.87;76.55;99983.03;5047500;28;20197;-54
2022/05/10 01:20:57;;;;;;;3.77;3.33;;;;;;;12.89;76.08;99989.03;5047301;28;20203;-55
2022/05/10 01:23:54;;;;;;;4.57;3.37;;;;;;;12.90;75.92;99978.59;5047208;28;20192;-54
2022/05/10 01:26:29;;;;;;;4.30;3.23;;;;;;;12.88;75.73;99974.31;5047117;28;20316;-54
2022/05/10 01:29:01;;;;;;;4.10;2.90;;;;;;;12.93;75.32;99977.66;5047341;28;20242;-54
2022/05/10 01:31:33;;;;;;;5.07;2.93;;;;;;;12.75;75.82;99960.84;5047245;28;20193;-54
2022/05/10 01:34:15;;;;;;;3.77;2.80;;;;;;;12.74;76.55;99966.94;5047024;28;20216;-55
2022/05/10 01:36:47;;;;;;;4.27;2.77;;;;;;;12.80;76.19;99971.94;5047345;28;20236;-54
2022/05/10 01:39:21;;;;;;;3.67;3.07;;;;;;;12.84;75.66;99973.56;5047075;28;20207;-55
2022/05/10 01:41:53;;;;;;;3.43;2.87;;;;;;;12.86;75.58;99974.38;5046845;28;20196;-54
2022/05/10 01:44:28;;;;;;;5.93;3.07;;;;;;;12.82;75.98;99970.16;5046339;28;20581;-55
2022/05/10 01:47:00;;;;;;;3.27;2.97;;;;;;;12.80;76.44;99971.09;5016127;28;20192;-54
2022/05/10 01:49:36;;;;;;;4.97;2.80;;;;;;;12.85;75.95;99964.00;5015793;28;20190;-54
2022/05/10 01:52:10;;;;;;;4.23;3.23;;;;;;;12.90;75.07;99969.91;5015743;28;20731;-55
2022/05/10 01:55:06;;;;;;;5.50;2.87;;;;;;;12.81;75.31;99970.19;5015885;28;20226;-54
2022/05/10 01:57:37;;;;;;;3.23;3.00;;;;;;;12.74;75.43;99969.53;5020486;28;20194;-53
2022/05/10 02:00:11;;;;;;;2.77;2.53;;;;;;;12.67;75.94;99968.00;5027656;28;20198;-54
2022/05/10 02:02:43;;;;;;;3.80;2.80;;;;;;;12.54;76.98;99971.88;5030579;28;20201;-53
2022/05/10 02:05:15;;;;;;;3.57;2.97;;;;;;;12.53;77.61;99977.97;5030558;28;20194;-55
2022/05/10 02:07:46;;;;;;;4.87;2.63;;;;;;;12.49;78.23;99974.63;5030620;28;20630;-55
2022/05/10 02:10:24;;;;;;;5.47;3.07;;;;;;;12.45;78.09;99972.16;5030283;28;20288;-54
2022/05/10 02:13:00;;;;;;;2.90;2.70;;;;;;;12.44;78.31;99973.03;5030295;28;20199;-55
2022/05/10 02:15:35;;;;;;;5.47;3.07;;;;;;;12.30;78.62;99960.44;5030309;28;20606;-55
2022/05/10 02:18:10;;;;;;;6.03;3.20;;;;;;;12.31;79.75;99976.00;5030017;28;20595;-54
2022/05/10 02:20:43;;;;;;;7.73;3.20;;;;;;;12.19;80.07;99955.53;5030301;28;20725;-54
2022/05/10 02:23:15;;;;;;;3.30;2.90;;;;;;;12.30;79.18;99966.47;5030090;28;20212;-54
2022/05/10 02:25:46;;;;;;;6.50;3.30;;;;;;;12.24;78.97;99953.66;5030006;28;20232;-55
2022/05/10 02:28:20;;;;;;;3.30;3.00;;;;;;;12.38;78.67;99965.44;5030010;28;20203;-55
2022/05/10 02:30:52;;;;;;;3.63;3.33;;;;;;;12.37;78.97;99956.75;5030230;28;20201;-54
2022/05/10 02:33:18;;;;;;;6.70;3.53;;;;;;;12.34;79.88;99962.03;5030161;28;20198;-55
2022/05/10 02:35:49;;;;;;;6.13;3.73;;;;;;;12.42;79.44;99959.22;5030169;28;20601;-54
2022/05/10 02:38:18;;;;;;;6.43;3.57;;;;;;;12.47;79.04;99946.91;5030168;28;20204;-55
2022/05/10 02:40:47;;;;;;;5.87;3.37;;;;;;;12.45;79.10;99948.72;5029803;28;20284;-53
2022/05/10 02:43:18;;;;;;;6.20;5.23;;;;;;;12.48;79.39;99951.25;5029796;28;20201;-55
2022/05/10 02:45:45;;;;;;;3.87;3.27;;;;;;;12.30;80.06;99930.03;5029896;28;20200;-54
2022/05/10 02:48:23;;;;;;;5.67;4.13;;;;;;;12.44;79.40;99947.00;5029863;28;20719;-54
2022/05/10 02:50:51;;;;;;;4.47;4.17;;;;;;;12.46;79.19;99956.47;5029737;28;20250;-56
2022/05/10 02:53:17;;;;;;;8.53;3.70;;;;;;;12.41;79.38;99954.94;5029692;28;20224;-54
2022/05/10 02:55:50;;;;;;;4.27;3.90;;;;;;;12.28;80.87;99947.47;5029791;28;20245;-55
2022/05/10 02:58:31;;;;;;;6.97;3.77;;;;;;;12.12;82.36;99956.59;5029944;28;20193;-55
2022/05/10 03:01:05;;;;;;;5.53;3.90;;;;;;;12.06;84.15;99959.38;5029622;28;20233;-55
2022/05/10 03:03:35;;;;;;;5.90;3.77;;;;;;;11.92;84.68;99961.50;5029606;28;20204;-56
2022/05/10 03:06:03;;;;;;;4.40;4.00;;;;;;;11.95;84.72;99953.63;5028553;28;20198;-55
2022/05/10 03:08:30;;;;;;;4.90;3.50;;;;;;;12.06;84.42;99955.94;5028599;28;20217;-58
2022/05/10 03:10:57;;;;;;;8.87;3.90;;;;;;;12.07;85.31;99952.44;5029408;28;20194;-55
2022/05/10 03:13:24;;;;;;;11.20;3.60;;;;;;;11.96;86.12;99950.94;5015000;28;20220;-56
2022/05/10 03:15:51;;;;;;;8.30;4.40;;;;;;;11.96;86.44;99950.94;5018146;28;20225;-55
2022/05/10 03:18:18;;;;;;;9.13;4.80;;;;;;;11.97;86.40;99949.22;5015882;28;20628;-54
2022/05/10 03:20:46;;;;;;;11.23;4.60;;;;;;;12.00;85.63;99963.00;5019476;28;20312;-55
2022/05/10 03:23:13;;;;;;;12.97;4.83;;;;;;;12.00;86.05;99956.94;5017349;28;20232;-56
2022/05/10 03:25:40;;;;;;;5.57;4.83;;;;;;;12.02;87.06;99952.56;5016335;28;20304;-55
2022/05/10 03:28:07;;;;;;;8.93;4.80;;;;;;;11.97;88.95;99957.88;5017613;28;20598;-54
2022/05/10 03:30:34;;;;;;;7.73;5.33;;;;;;;12.03;90.04;99956.00;5018230;28;20214;-55
2022/05/10 03:33:01;;;;;;;10.90;5.60;;;;;;;12.06;91.05;99954.19;5015902;28;20608;-55
2022/05/10 03:35:28;;;;;;;16.80;5.87;;;;;;;12.07;92.00;99950.69;5027630;28;20235;-55
2022/05/10 03:37:57;;;;;;;10.13;5.93;;;;;;;12.14;91.94;99946.16;5015506;28;20753;-54
2022/05/10 03:40:24;;;;;;;12.20;6.10;;;;;;;12.31;91.19;99956.91;5018331;28;20620;-54
2022/05/10 03:42:53;;;;;;;9.07;5.10;;;;;;;12.40;90.09;99964.50;5027859;27;20232;-55
2022/05/10 03:45:22;;;;;;;11.27;5.20;;;;;;;12.59;87.31;99963.03;5012696;28;20329;-55
2022/05/10 03:47:50;;;;;;;8.70;5.40;;;;;;;12.78;85.68;99968.53;5012871;28;20311;-54
2022/05/10 03:50:20;;;;;;;7.83;5.40;;;;;;;13.09;83.72;99956.25;5010103;28;20222;-55
2022/05/10 03:52:47;;;;;;;8.43;5.30;;;;;;;14.01;78.66;99961.84;5025379;28;20608;-55
2022/05/10 03:55:19;;;;;;;13.57;5.63;;;;;;;15.10;71.95;99969.94;5024413;28;20621;-54
2022/05/10 03:57:47;;;;;;;6.17;5.50;;;;;;;16.00;66.63;99966.19;5028044;28;20221;-54
2022/05/10 04:00:17;;;;;;;7.00;5.27;;;;;;;16.56;63.34;99965.41;5015988;28;21229;-54
2022/05/10 04:02:44;;;;;;;5.53;4.87;;;;;;;17.10;60.24;99977.72;5016872;28;20701;-54
2022/05/10 04:05:13;;;;;;;7.67;4.83;;;;;;;17.78;57.56;99987.47;5015337;28;20224;-54
2022/05/10 04:07:40;;;;;;;10.87;5.70;;;;;;;18.54;54.39;99994.88;5015780;28;20217;-54
2022/05/10 04:10:09;;;;;;;7.33;6.60;;;;;;;19.07;51.96;99999.88;5010733;28;20229;-54
2022/05/10 04:12:38;;;;;;;8.67;7.63;;;;;;;19.34;50.61;99984.28;5015845;28;20233;-54
2022/05/10 04:15:08;;;;;;;10.40;7.95;;;;;;;19.94;49.65;99999.19;5016705;28;20872;-51
2022/05/10 04:17:35;;;;;;;15.57;8.35;;;;;;;20.69;47.49;99984.06;5026290;28;20225;-53
2022/05/10 04:20:02;;;;;;;14.10;9.90;;;;;;;21.06;45.84;99985.22;5026512;28;20687;-54
2022/05/10 04:22:29;;;;;;;11.65;10.38;;;;;;;21.72;44.56;99987.03;5015635;28;20229;-54
2022/05/10 04:24:56;;;;;;;12.30;11.00;;;;;;;22.09;42.87;99988.91;5010116;28;20230;-55
2022/05/10 04:27:23;;;;;;;27.17;11.07;;;;;;;22.16;42.77;99991.94;5009202;28;20316;-54
2022/05/10 04:29:54;;;;;;;10.82;9.73;;;;;;;22.92;41.22;99991.84;5010176;28;20226;-54
2022/05/10 04:32:34;;;;;;;12.73;10.23;;;;;;;23.52;39.64;99989.19;5024122;28;20218;-55
2022/05/10 04:35:01;;;;;;;10.57;8.02;;;;;;;24.15;38.25;99995.03;5021157;28;20228;-54
2022/05/10 04:37:28;;;;;;;8.75;7.80;;;;;;;24.68;37.19;99996.16;5008849;28;20232;-55
2022/05/10 04:42:39;;;;;;;11.77;7.63;;;;;;;25.24;36.17;99999.59;5007663;28;20308;-54
2022/05/10 04:45:08;;;;;;;11.68;8.05;;;;;;;25.17;35.88;100006.34;5020078;28;20228;-55
2022/05/10 04:47:35;;;;;;;19.48;9.82;;;;;;;25.24;35.81;100001.41;5022482;28;20675;-55
2022/05/10 04:50:02;;;;;;;20.08;11.02;;;;;;;24.79;36.37;100001.47;5008369;28;20222;-56
2022/05/10 04:52:29;;;;;;;16.98;11.90;;;;;;;24.71;36.67;99997.72;5007504;28;20230;-55
2022/05/10 04:54:56;;;;;;;16.88;11.68;;;;;;;24.95;35.99;99999.28;5012586;28;20236;-56
2022/05/10 04:57:22;;;;;;;18.10;10.85;;;;;;;25.29;35.57;100010.66;5046761;28;20216;-56
2022/05/10 04:59:49;;;;;;;18.38;11.60;;;;;;;26.10;34.26;100003.06;5047312;28;20221;-56
2022/05/10 05:02:18;;;;;;;13.20;10.35;;;;;;;26.42;33.60;100002.97;5046406;28;20315;-54
2022/05/10 05:04:45;;;;;;;20.45;10.90;;;;;;;26.71;33.01;100011.94;5046796;28;20323;-55
2022/05/10 05:07:11;;;;;;;12.02;9.57;;;;;;;26.24;33.44;100003.56;5017443;28;20232;-56
2022/05/10 05:09:38;;;;;;;13.55;9.70;;;;;;;26.53;33.21;100009.03;5006693;28;20222;-57
2022/05/10 05:12:06;;;;;;;9.50;8.55;;;;;;;27.07;31.84;100015.84;5017853;28;20703;-56
2022/05/10 05:14:33;;;;;;;10.82;8.48;;;;;;;26.96;32.42;100005.31;5026362;28;20597;-56
2022/05/10 05:17:00;;;;;;;13.63;9.13;;;;;;;26.83;32.00;100005.53;5026911;28;20594;-57
2022/05/10 05:19:28;;;;;;;13.48;8.80;;;;;;;26.08;33.24;100005.00;5018889;28;20753;-56
2022/05/10 05:21:55;;;;;;;11.73;8.23;;;;;;;26.85;32.15;100010.72;5027084;28;20592;-55
2022/05/10 05:24:22;;;;;;;9.90;8.52;;;;;;;27.45;31.06;100013.22;5026969;28;20202;-54
2022/05/10 05:26:49;;;;;;;11.60;8.02;;;;;;;27.32;31.23;100007.31;5010651;28;20233;-53
2022/05/10 05:29:16;;;;;;;17.02;8.00;;;;;;;27.21;31.27;100004.78;5018649;28;20198;-52
2022/05/10 05:31:43;;;;;;;12.23;7.65;;;;;;;27.23;31.29;100017.97;5009505;28;20204;-52
2022/05/10 05:34:09;;;;;;;11.95;8.10;;;;;;;27.47;31.15;100011.25;5007389;28;20202;-53
2022/05/10 05:36:38;;;;;;;10.73;8.27;;;;;;;27.07;31.75;100006.03;5007536;28;20206;-53
2022/05/10 05:39:05;;;;;;;14.95;7.97;;;;;;;27.29;31.33;100012.09;5007504;28;20212;-52
2022/05/10 05:41:32;;;;;;;12.90;8.32;;;;;;;27.66;31.16;100009.59;5007525;28;20198;-53
2022/05/10 05:43:59;;;;;;;14.52;8.00;;;;;;;28.29;29.86;100000.13;5007478;28;20205;-56
2022/05/10 05:46:26;;;;;;;12.90;7.95;;;;;;;28.85;29.43;100000.03;5007438;28;20325;-58
2022/05/10 05:48:53;;;;;;;11.23;7.45;;;;;;;28.71;29.52;99994.31;5007429;28;20198;-50
2022/05/10 05:51:20;;;;;;;12.50;7.00;;;;;;;29.21;28.68;99998.28;5013448;28;20197;-52
2022/05/10 05:53:48;;;;;;;8.35;7.03;;;;;;;28.61;29.53;100007.72;5007336;28;20706;-56
2022/05/10 05:56:15;;;;;;;9.05;5.85;;;;;;;28.41;29.46;100009.63;5007119;28;20233;-53
2022/05/10 05:58:42;;;;;;;6.97;5.72;;;;;;;28.51;29.45;100006.94;5007163;28;20225;-53
2022/05/10 06:01:13;;;;;;;7.45;5.28;;;;;;;27.94;30.14;100000.72;5007022;28;20526;-55
2022/05/10 06:03:41;;;;;;;7.70;5.80;;;;;;;27.92;30.55;99999.19;5007223;28;20202;-56
2022/05/10 06:06:08;;;;;;;8.73;6.07;;;;;;;28.04;30.63;100009.56;5007003;28;20205;-55
2022/05/10 06:08:35;;;;;;;6.32;5.78;;;;;;;28.27;29.95;100009.25;5007861;28;20216;-53
2022/05/10 06:11:03;;;;;;;9.60;5.32;;;;;;;27.90;30.95;100007.34;5007252;28;20198;-53
2022/05/10 06:13:30;;;;;;;6.55;5.40;;;;;;;28.44;29.89;100012.00;5007087;28;20198;-52
2022/05/10 06:15:57;;;;;;;9.57;7.70;;;;;;;28.39;30.32;100010.75;5007426;28;20244;-54
2022/05/10 06:18:24;;;;;;;10.05;6.22;;;;;;;28.52;30.29;100005.94;5007048;28;20209;-56
2022/05/10 06:20:52;;;;;;;7.05;6.10;;;;;;;28.95;29.72;99985.78;5007258;28;20329;-57
2022/05/10 06:23:19;;;;;;;9.98;7.10;;;;;;;28.36;30.23;99998.53;5017789;28;20566;-54
2022/05/10 06:25:46;;;;;;;8.80;6.43;;;;;;;28.54;29.82;100006.63;5026356;28;20620;-56
2022/05/10 06:28:15;;;;;;;9.82;5.45;;;;;;;29.21;28.38;100006.28;5027147;28;20197;-55
2022/05/10 06:30:43;;;;;;;6.03;5.35;;;;;;;28.96;28.79;100007.00;5026440;28;20200;-53
2022/05/10 06:33:11;;;;;;;7.43;4.68;;;;;;;28.60;29.01;100007.88;5026613;28;20219;-52
2022/05/10 06:35:39;;;;;;;5.65;4.72;;;;;;;28.74;28.61;100002.88;5026359;28;20271;-52
2022/05/10 06:38:16;;;;;;;5.47;4.50;;;;;;;28.39;28.64;100002.75;5026603;28;20593;-52
2022/05/10 06:40:43;;;;;;;8.38;4.28;;;;;;;28.12;29.36;100008.84;5026562;28;20208;-54
2022/05/10 06:43:11;;;;;;;8.52;4.80;;;;;;;28.07;29.46;100006.63;5029754;28;20202;-54
2022/05/10 06:45:41;;;;;;;4.53;4.03;;;;;;;28.21;29.16;99996.50;5029786;28;20201;-53
2022/05/10 06:48:09;;;;;;;8.73;4.18;;;;;;;27.86;29.62;99999.78;5029823;28;20202;-53
2022/05/10 06:50:37;;;;;;;4.57;3.92;;;;;;;27.62;29.72;99998.41;5029838;28;20193;-56
2022/05/10 06:53:05;;;;;;;8.80;3.80;;;;;;;27.95;29.59;100002.44;5029547;28;20288;-55
2022/05/10 06:55:34;;;;;;;6.15;3.65;;;;;;;28.59;28.80;100003.50;5027545;28;20225;-54
2022/05/10 06:58:02;;;;;;;9.07;3.80;;;;;;;28.74;28.40;100000.22;5029873;28;20201;-54
2022/05/10 07:00:30;;;;;;;11.15;4.97;;;;;;;28.76;28.47;100000.91;5029788;28;20201;-55
2022/05/10 07:02:58;;;;;;;10.48;5.03;;;;;;;28.46;29.31;99993.16;5029566;28;20558;-55
2022/05/10 07:05:25;;;;;;;14.45;6.65;;;;;;;28.57;28.95;99998.31;5029506;28;20610;-55
2022/05/10 07:07:52;;;;;;;7.90;6.25;;;;;;;28.48;28.45;99997.38;5029478;28;20194;-55
2022/05/10 07:10:19;;;;;;;9.38;5.50;;;;;;;28.45;29.01;99992.31;5029547;28;20232;-53
2022/05/10 07:12:47;;;;;;;7.75;4.60;;;;;;;28.68;28.70;99987.44;5029313;28;20201;-55
2022/05/10 07:15:19;;;;;;;11.98;4.10;;;;;;;28.30;28.52;99987.63;5029163;28;20225;-55
2022/05/10 07:17:46;;;;;;;14.40;8.20;;;;;;;28.50;29.01;99984.72;5029348;28;20288;-55
2022/05/10 07:20:17;;;;;;;4.55;4.20;;;;;;;28.66;28.05;99989.44;5029013;28;20205;-54
2022/05/10 07:22:45;;;;;;;5.93;4.28;;;;;;;28.90;28.24;99964.84;5029176;28;20203;-55
2022/05/10 07:25:13;;;;;;;5.18;4.53;;;;;;;29.61;27.83;99995.16;5029163;28;20665;-56
2022/05/10 07:27:41;;;;;;;6.65;3.80;;;;;;;29.67;26.92;99998.22;5029290;28;20215;-55
2022/05/10 07:30:09;;;;;;;12.55;5.53;;;;;;;29.83;26.74;99996.50;5029078;28;20210;-55
2022/05/10 07:32:36;;;;;;;8.65;5.93;;;;;;;30.11;26.76;99986.53;5028433;28;20647;-55
2022/05/10 07:35:04;;;;;;;5.03;4.05;;;;;;;30.61;26.12;99985.81;5009391;28;20198;-55
2022/05/10 07:37:33;;;;;;;5.18;3.42;;;;;;;31.35;25.56;99993.94;5009737;28;20205;-55
2022/05/10 07:40:01;;;;;;;5.63;3.55;;;;;;;31.63;25.35;99989.09;5009205;28;20285;-55
2022/05/10 07:42:28;;;;;;;4.88;4.10;;;;;;;31.45;25.46;99985.72;5009234;28;20198;-55
2022/05/10 07:44:54;;;;;;;7.70;3.85;;;;;;;31.47;25.49;99986.41;5009379;28;20680;-56
2022/05/10 07:47:21;;;;;;;10.15;4.57;;;;;;;31.77;25.05;99984.06;5009027;28;20206;-55
2022/05/10 07:49:48;;;;;;;8.07;3.85;;;;;;;31.78;24.98;99989.28;5009480;28;20198;-54
2022/05/10 07:52:16;;;;;;;9.35;3.00;;;;;;;32.10;24.92;99991.06;5008611;28;20208;-56
2022/05/10 07:54:44;;;;;;;8.20;3.13;;;;;;;32.01;24.74;99984.88;5008748;28;20204;-54
2022/05/10 07:57:11;;;;;;;6.53;3.20;;;;;;;32.33;24.37;99984.00;5008942;28;20327;-56
2022/05/10 07:59:38;;;;;;;3.65;3.35;;;;;;;32.51;23.63;99983.75;5009024;28;20564;-56
2022/05/10 08:02:06;;;;;;;4.55;3.25;;;;;;;32.72;23.73;99984.06;5009012;28;20206;-55
2022/05/10 08:04:33;;;;;;;4.78;3.42;;;;;;;32.08;24.22;99983.19;5009121;28;20272;-55
2022/05/10 08:07:01;;;;;;;7.65;3.28;;;;;;;31.21;24.85;99983.00;5008915;28;20204;-55
2022/05/10 08:09:28;;;;;;;8.23;3.30;;;;;;;31.58;24.56;99985.22;5008902;28;20714;-54
2022/05/10 08:11:56;;;;;;;6.53;2.70;;;;;;;31.32;24.23;99977.31;5008710;28;20206;-55
2022/05/10 08:14:23;;;;;;;5.78;2.78;;;;;;;31.19;24.74;99979.66;5027529;28;20207;-55
2022/05/10 08:16:50;;;;;;;4.22;3.10;;;;;;;31.64;24.06;99979.22;5048169;28;20226;-55
2022/05/10 08:19:17;;;;;;;8.00;2.60;;;;;;;31.67;23.61;99974.34;5048372;28;20570;-54
2022/05/10 08:21:44;;;;;;;5.50;2.53;;;;;;;31.40;24.13;99974.63;5048150;28;20203;-56
2022/05/10 08:24:11;;;;;;;2.85;2.60;;;;;;;30.97;24.07;99976.56;5048294;28;20192;-56
2022/05/10 08:26:38;;;;;;;6.45;2.50;;;;;;;30.79;23.98;99975.00;5048235;28;20231;-54
2022/05/10 08:29:06;;;;;;;4.90;2.50;;;;;;;30.11;24.22;99970.47;5047972;28;20681;-54
2022/05/10 08:31:33;;;;;;;2.88;2.42;;;;;;;29.80;24.06;99971.88;5048316;28;20643;-54
2022/05/10 08:34:00;;;;;;;2.70;2.45;;;;;;;29.14;25.10;99959.75;5048312;28;20717;-55
2022/05/10 08:36:27;;;;;;;8.65;2.92;;;;;;;29.05;26.17;99963.34;5036447;28;20621;-54
2022/05/10 08:38:54;;;;;;;6.35;3.40;;;;;;;28.77;26.55;99953.66;5008643;28;20209;-54
2022/05/10 08:41:25;;;;;;;8.50;3.50;;;;;;;28.73;26.58;99957.59;5008320;28;20202;-55
2022/05/10 08:43:57;;;;;;;5.38;2.92;;;;;;;28.58;27.29;99956.41;5009656;28;20673;-55
2022/05/10 08:46:31;;;;;;;5.00;3.00;;;;;;;28.70;27.16;99949.88;5015357;28;20620;-54
2022/05/10 08:49:02;;;;;;;5.38;3.13;;;;;;;29.01;26.81;99953.13;5024124;28;20284;-53
2022/05/10 08:51:31;;;;;;;5.55;2.95;;;;;;;28.80;27.00;99956.88;5024501;28;20197;-54
2022/05/10 08:53:58;;;;;;;7.28;3.90;;;;;;;29.10;26.79;99946.84;5027767;28;20255;-55
2022/05/10 08:56:28;;;;;;;7.30;3.38;;;;;;;28.68;26.86;99950.03;5027814;28;20217;-54
2022/05/10 08:59:18;;;;;;;5.82;3.08;;;;;;;29.22;26.90;99949.16;5027924;28;20228;-54
2022/05/10 09:01:54;;;;;;;5.03;3.03;;;;;;;29.51;25.95;99946.25;5027828;28;20197;-55
2022/05/10 09:04:34;;;;;;;12.57;3.67;;;;;;;29.52;26.08;99949.78;5026020;28;20750;-53
2022/05/10 09:07:13;;;;;;;8.00;3.53;;;;;;;29.55;26.05;99942.28;5027626;28;20193;-54
2022/05/10 09:09:55;;;;;;;9.75;4.63;;;;;;;29.33;26.08;99944.56;5027809;28;20213;-54
2022/05/10 09:12:24;;;;;;;3.10;2.80;;;;;;;29.46;26.08;99923.66;5027523;28;20201;-55
2022/05/10 09:14:56;;;;;;;5.65;2.90;;;;;;;29.17;26.11;99940.75;5027945;28;20240;-54
2022/05/10 09:17:29;;;;;;;3.40;3.10;;;;;;;28.93;26.26;99939.66;5027537;28;20254;-57
2022/05/10 09:19:57;;;;;;;10.60;2.55;;;;;;;28.21;27.33;99937.78;5027614;28;20674;-55
2022/05/10 09:22:34;;;;;;;4.40;2.55;;;;;;;28.35;26.69;99932.78;5027393;28;20193;-54
2022/05/10 09:25:07;;;;;;;7.90;3.28;;;;;;;28.87;26.64;99930.41;5027477;28;20201;-55
2022/05/10 09:27:35;;;;;;;2.95;2.60;;;;;;;29.10;26.34;99923.63;5027709;28;20193;-54
2022/05/10 09:30:03;;;;;;;3.20;2.38;;;;;;;28.88;25.69;99919.59;5027487;28;20257;-54
2022/05/10 09:35:19;;;;;;;4.10;2.38;;;;;;;28.84;25.14;99928.88;5018225;28;20204;-55
2022/05/10 09:37:52;;;;;;;4.30;2.10;;;;;;;29.06;24.62;99916.06;5007154;28;20647;-55
2022/05/10 09:40:32;;;;;;;3.25;2.42;;;;;;;28.79;25.31;99908.94;5007408;28;20320;-55
2022/05/10 09:43:21;;;;;;;4.15;2.70;;;;;;;28.81;25.42;99915.81;5007440;28;20198;-55
2022/05/10 09:46:05;;;;;;;4.57;2.10;;;;;;;28.67;24.00;99913.63;5007391;28;20203;-56
2022/05/10 09:48:34;;;;;;;4.03;2.30;;;;;;;28.76;25.17;99915.41;5007343;28;20198;-55
2022/05/10 09:51:21;;;;;;;3.63;2.60;;;;;;;29.06;24.44;99913.41;5007166;28;20285;-54
2022/05/10 09:53:48;;;;;;;4.32;2.03;;;;;;;28.76;24.42;99907.41;5007250;28;20198;-54
2022/05/10 09:56:29;;;;;;;2.45;1.65;;;;;;;28.10;21.12;99901.41;5007311;28;20629;-55
2022/05/10 09:58:59;;;;;;;2.72;2.03;;;;;;;28.37;23.19;99908.59;5016184;28;20194;-53
2022/05/10 10:01:39;;;;;;;2.65;1.77;;;;;;;28.24;22.50;99898.25;5026879;28;20199;-55
2022/05/10 10:04:21;;;;;;;3.33;1.63;;;;;;;27.98;22.51;99897.22;5026811;28;20285;-54
2022/05/10 10:07:08;;;;;;;7.07;2.00;;;;;;;27.77;23.81;99900.06;5026732;28;20193;-55
2022/05/10 10:09:37;;;;;;;4.13;1.73;;;;;;;27.60;23.70;99890.16;5026710;28;20201;-54
2022/05/10 10:12:05;;;;;;;1.60;1.50;;;;;;;27.76;22.15;99887.75;5026675;28;20198;-54
2022/05/10 10:14:41;;;;;;;1.80;1.70;;;;;;;27.65;21.60;99890.59;5026988;28;20648;-56
2022/05/10 10:17:18;;;;;;;3.35;1.70;;;;;;;27.13;22.30;99889.19;5028623;28;20236;-55
2022/05/10 10:19:51;;;;;;;3.95;1.58;;;;;;;27.15;22.83;99877.44;5030245;28;20196;-54
2022/05/10 10:22:23;;;;;;;1.58;1.48;;;;;;;27.15;22.66;99865.91;5030296;28;20228;-55
2022/05/10 10:25:03;;;;;;;1.60;1.50;;;;;;;26.90;22.60;99868.13;5030211;28;20280;-54
2022/05/10 10:27:36;;;;;;;3.13;1.40;;;;;;;26.74;22.44;99878.50;5030023;28;20378;-54
2022/05/10 10:30:09;;;;;;;2.85;1.98;;;;;;;26.69;23.06;99862.09;5030293;28;20237;-55
2022/05/10 10:32:44;;;;;;;4.30;1.50;;;;;;;26.84;22.66;99865.19;5030185;28;20198;-54
2022/05/10 10:35:18;;;;;;;1.50;1.40;;;;;;;26.60;22.11;99866.44;5030044;28;20231;-55
2022/05/10 10:37:51;;;;;;;2.90;1.58;;;;;;;26.44;22.79;99857.28;5030002;28;20216;-56
2022/05/10 10:40:30;;;;;;;1.48;1.35;;;;;;;26.28;22.79;99855.16;5029733;28;20204;-55
2022/05/10 10:43:04;;;;;;;2.50;2.30;;;;;;;26.26;23.39;99860.56;5029936;28;20601;-55
2022/05/10 10:45:38;;;;;;;2.08;1.70;;;;;;;26.09;23.64;99863.00;5029943;28;20284;-55
2022/05/10 10:48:18;;;;;;;4.25;1.70;;;;;;;25.88;23.57;99847.97;5029651;28;20288;-57
2022/05/10 10:50:47;;;;;;;1.52;1.40;;;;;;;25.78;23.63;99849.72;5029646;28;20284;-58
2022/05/10 10:53:14;;;;;;;1.63;1.30;;;;;;;25.67;23.53;99850.66;5029916;28;20667;-54
2022/05/10 10:56:07;;;;;;;2.50;1.40;;;;;;;25.61;23.84;99853.03;5029637;28;20207;-55
2022/05/10 10:58:48;;;;;;;1.52;1.40;;;;;;;25.22;24.72;99846.56;5029788;28;20197;-54
2022/05/10 11:01:35;;;;;;;2.45;1.40;;;;;;;25.08;24.65;99847.72;5029699;28;20644;-60
2022/05/10 11:04:13;;;;;;;1.42;1.33;;;;;;;25.14;24.56;99830.44;5029678;28;20240;-55
2022/05/10 11:06:45;;;;;;;3.20;1.75;;;;;;;25.03;25.15;99810.09;5029559;28;20194;-55
2022/05/10 11:09:34;;;;;;;2.38;1.65;;;;;;;24.92;25.64;99834.91;5029317;28;20641;-54
2022/05/10 11:12:15;;;;;;;1.83;1.60;;;;;;;25.09;25.50;99828.16;5029631;28;20206;-55
2022/05/10 11:15:08;;;;;;;1.60;1.35;;;;;;;25.07;25.07;99823.94;5029527;28;20288;-55
2022/05/10 11:17:53;;;;;;;1.48;1.38;;;;;;;25.03;25.10;99820.72;5019803;28;20224;-54
2022/05/10 11:20:25;;;;;;;1.38;1.30;;;;;;;25.02;25.49;99827.00;5017934;28;20201;-55
2022/05/10 11:22:59;;;;;;;1.50;1.50;;;;;;;25.10;26.13;99800.63;5017563;28;20237;-56
2022/05/10 11:25:54;;;;;;;2.95;1.80;;;;;;;24.99;25.54;99816.63;5017394;28;20285;-54
2022/05/10 11:28:40;;;;;;;1.75;1.65;;;;;;;24.87;25.17;99778.63;5014894;28;20203;-55
2022/05/10 11:31:15;;;;;;;3.78;1.60;;;;;;;25.10;24.99;99816.56;5018577;28;20601;-54
2022/05/10 11:33:52;;;;;;;3.28;1.77;;;;;;;24.99;24.86;99798.03;5017788;28;20592;-54
2022/05/10 11:36:28;;;;;;;4.00;1.40;;;;;;;24.93;24.16;99811.84;5016118;28;20684;-55
2022/05/10 11:39:29;;;;;;;2.38;1.38;;;;;;;25.10;23.51;99805.09;5016850;28;20197;-55
2022/05/10 11:42:13;;;;;;;1.40;1.30;;;;;;;25.08;23.75;99804.38;5018528;28;20207;-55
2022/05/10 11:45:13;;;;;;;1.80;1.70;;;;;;;25.03;24.19;99796.81;5026515;28;20201;-55
2022/05/10 11:48:17;;;;;;;1.83;1.20;;;;;;;25.04;24.45;99793.19;5023336;28;20663;-55
2022/05/10 11:54:30;;;;;;;5.97;1.77;;;;;;;25.04;23.74;99790.53;5029045;28;20333;-55
2022/05/10 11:56:59;;;;;;;3.00;1.58;;;;;;;24.82;24.36;99794.13;5028568;28;20225;-55